Wakanatsu — JD2300 — position and weather

sailwx.info

Track history (hours):
 
Tides and Currents Weather Stations Pressure Air Temp Water Temp Dewpoint Dewpoint Depression Visibility Wind Speed Wind Dir Waves Ship Positions

Wakanatsu

Last reported at 2018-May-14 14:00 UTC. Time now 2018-Jul-21 19:26 UTC.
Position N 33°06' E 129°22'.
Warning: this ship's position is months out of date.

Length 168 m; draft 6.7 m.

Type: Cargo ship. MMSI: 431680233.

Date/timePositionNaut miles runAvg speedWind from/ knotsBaromVisibWave heightAir tempDewpointWater temp
2018-May-14 14:00N 33°06' E 129°22'918.0
2018-May-14 13:30N 33°14' E 129°18'918.1
2018-May-14 13:00N 33°23' E 129°21'918.5
2018-May-14 12:30N 33°30' E 129°28'1019.4
2018-May-14 12:00N 33°35' E 129°37'1019.6
2018-May-14 11:30N 33°38' E 129°49'1019.8
2018-May-14 11:00N 33°41' E 130°00'1019.9
2018-May-14 10:30N 33°44' E 130°12'714.7
2018-May-14 10:00N 33°39' E 130°18'510.6
2018-May-14 09:30N 33°39' E 130°24'0 0.8
2018-May-14 08:57N 33°39' E 130°25'0 0.0
2018-May-14 08:27N 33°39' E 130°25'0 0.0
2018-May-14 08:00N 33°39' E 130°25'0 0.0
2018-May-14 07:30N 33°39' E 130°25'0 0.0
2018-May-14 07:00N 33°39' E 130°25'0 0.0
2018-May-14 06:30N 33°39' E 130°25'0 0.0
2018-May-14 06:00N 33°39' E 130°25'0 0.0
2018-May-14 05:27N 33°39' E 130°25'0 0.0
2018-May-14 04:57N 33°39' E 130°25'0 0.0
2018-May-14 04:27N 33°39' E 130°25'0 0.0
2018-May-14 04:00N 33°39' E 130°25'0 0.1
2018-May-14 03:30N 33°39' E 130°25'4 8.6
2018-May-14 03:00N 33°38' E 130°20'815.7
2018-May-14 02:31N 33°44' E 130°13'1020.8
2018-May-14 02:00N 33°41' E 130°01'1121.3
2018-May-14 01:30N 33°38' E 129°49'4018.0
2018-May-13 23:17N 33°05' E 129°22'10916.0
2018-May-13 16:29N 31°17' E 129°09'144 3.2
2018-May-11 19:11N 33°38' E 129°47'320.0
2018-May-11 19:00N 33°39' E 129°50'1019.8
2018-May-11 18:30N 33°41' E 130°02'1019.8
2018-May-11 18:00N 33°44' E 130°13'816.1
2018-May-11 17:30N 33°38' E 130°20'4 8.6
2018-May-11 17:00N 33°39' E 130°25'0 0.2
2018-May-11 16:25N 33°39' E 130°25'0 0.0
2018-May-11 15:56N 33°39' E 130°25'0 0.0
2018-May-11 15:26N 33°39' E 130°25'0 0.0
2018-May-11 14:56N 33°39' E 130°25'0 0.0
2018-May-11 14:25N 33°39' E 130°25'0 0.0
2018-May-11 13:56N 33°39' E 130°25'0 0.0
2018-May-11 13:25N 33°39' E 130°25'0 0.0
2018-May-11 12:56N 33°39' E 130°25'0 0.0
2018-May-11 12:25N 33°39' E 130°25'0 0.0
2018-May-11 11:55N 33°39' E 130°25'0 0.0
2018-May-11 11:25N 33°39' E 130°25'0 0.0
2018-May-11 10:55N 33°39' E 130°25'0 0.0
2018-May-11 10:25N 33°39' E 130°25'1 1.2
2018-May-11 10:00N 33°39' E 130°24'611.2
2018-May-11 09:30N 33°39' E 130°18'815.7
2018-May-11 09:00N 33°44' E 130°10'1020.5
2018-May-11 08:30N 33°41' E 129°59'1020.6
2018-May-11 08:00N 33°38' E 129°47'  
2018-May-08 15:26N 33°28' E 129°25'1819.5
2018-May-08 14:31N 33°38' E 129°43'219.5
2018-May-08 14:26N 33°38' E 129°44'920.0
2018-May-08 14:00N 33°41' E 129°54'1019.6
2018-May-08 13:30N 33°44' E 130°05'815.9
2018-May-08 13:00N 33°43' E 130°15'714.0
2018-May-08 12:30N 33°38' E 130°21'3 6.5
2018-May-08 11:59N 33°39' E 130°25'0 0.0
2018-May-08 11:29N 33°39' E 130°25'0 0.0
2018-May-08 10:59N 33°39' E 130°25'0 0.0
2018-May-08 10:29N 33°39' E 130°25'0 0.0
2018-May-08 09:53N 33°39' E 130°25'0 0.0
2018-May-08 09:29N 33°39' E 130°25'0 0.0
2018-May-08 08:59N 33°39' E 130°25'0 0.0
2018-May-08 08:29N 33°39' E 130°25'0 0.0
2018-May-08 07:59N 33°39' E 130°25'0 0.0
2018-May-08 07:29N 33°39' E 130°25'0 0.0
2018-May-08 06:59N 33°39' E 130°25'0 0.0
2018-May-08 06:29N 33°39' E 130°25'0 0.0
2018-May-08 05:59N 33°39' E 130°25'0 0.0
2018-May-08 05:29N 33°39' E 130°25'0 0.0
2018-May-08 05:00N 33°39' E 130°25'4 8.0
2018-May-08 04:30N 33°38' E 130°20'714.8
2018-May-08 04:00N 33°43' E 130°14'816.1
2018-May-08 03:30N 33°42' E 130°04'917.2
2018-May-08 03:00N 33°39' E 129°55'  
Track history (hours):
 
Tides and Currents Weather Stations Pressure Air Temp Water Temp Dewpoint Dewpoint Depression Visibility Wind Speed Wind Dir Waves Ship Positions

Wakanatsu

Last reported at 2018-May-14 14:00 UTC. Time now 2018-Jul-21 19:26 UTC.
Position N 33°06' E 129°22'.
Warning: this ship's position is months out of date.

Length 168 m; draft 6.7 m.

Type: Cargo ship. MMSI: 431680233.

Date/timePositionNaut miles runAvg speedWind from/ knotsBaromVisibWave heightAir tempDewpointWater temp
2018-May-14 14:00N 33°06' E 129°22'918.0
2018-May-14 13:30N 33°14' E 129°18'918.1
2018-May-14 13:00N 33°23' E 129°21'918.5
2018-May-14 12:30N 33°30' E 129°28'1019.4
2018-May-14 12:00N 33°35' E 129°37'1019.6
2018-May-14 11:30N 33°38' E 129°49'1019.8
2018-May-14 11:00N 33°41' E 130°00'1019.9
2018-May-14 10:30N 33°44' E 130°12'714.7
2018-May-14 10:00N 33°39' E 130°18'510.6
2018-May-14 09:30N 33°39' E 130°24'0 0.8
2018-May-14 08:57N 33°39' E 130°25'0 0.0
2018-May-14 08:27N 33°39' E 130°25'0 0.0
2018-May-14 08:00N 33°39' E 130°25'0 0.0
2018-May-14 07:30N 33°39' E 130°25'0 0.0
2018-May-14 07:00N 33°39' E 130°25'0 0.0
2018-May-14 06:30N 33°39' E 130°25'0 0.0
2018-May-14 06:00N 33°39' E 130°25'0 0.0
2018-May-14 05:27N 33°39' E 130°25'0 0.0
2018-May-14 04:57N 33°39' E 130°25'0 0.0
2018-May-14 04:27N 33°39' E 130°25'0 0.0
2018-May-14 04:00N 33°39' E 130°25'0 0.1
2018-May-14 03:30N 33°39' E 130°25'4 8.6
2018-May-14 03:00N 33°38' E 130°20'815.7
2018-May-14 02:31N 33°44' E 130°13'1020.8
2018-May-14 02:00N 33°41' E 130°01'1121.3
2018-May-14 01:30N 33°38' E 129°49'4018.0
2018-May-13 23:17N 33°05' E 129°22'10916.0
2018-May-13 16:29N 31°17' E 129°09'144 3.2
2018-May-11 19:11N 33°38' E 129°47'320.0
2018-May-11 19:00N 33°39' E 129°50'1019.8
2018-May-11 18:30N 33°41' E 130°02'1019.8
2018-May-11 18:00N 33°44' E 130°13'816.1
2018-May-11 17:30N 33°38' E 130°20'4 8.6
2018-May-11 17:00N 33°39' E 130°25'0 0.2
2018-May-11 16:25N 33°39' E 130°25'0 0.0
2018-May-11 15:56N 33°39' E 130°25'0 0.0
2018-May-11 15:26N 33°39' E 130°25'0 0.0
2018-May-11 14:56N 33°39' E 130°25'0 0.0
2018-May-11 14:25N 33°39' E 130°25'0 0.0
2018-May-11 13:56N 33°39' E 130°25'0 0.0
2018-May-11 13:25N 33°39' E 130°25'0 0.0
2018-May-11 12:56N 33°39' E 130°25'0 0.0
2018-May-11 12:25N 33°39' E 130°25'0 0.0
2018-May-11 11:55N 33°39' E 130°25'0 0.0
2018-May-11 11:25N 33°39' E 130°25'0 0.0
2018-May-11 10:55N 33°39' E 130°25'0 0.0
2018-May-11 10:25N 33°39' E 130°25'1 1.2
2018-May-11 10:00N 33°39' E 130°24'611.2
2018-May-11 09:30N 33°39' E 130°18'815.7
2018-May-11 09:00N 33°44' E 130°10'1020.5
2018-May-11 08:30N 33°41' E 129°59'1020.6
2018-May-11 08:00N 33°38' E 129°47'  
2018-May-08 15:26N 33°28' E 129°25'1819.5
2018-May-08 14:31N 33°38' E 129°43'219.5
2018-May-08 14:26N 33°38' E 129°44'920.0
2018-May-08 14:00N 33°41' E 129°54'1019.6
2018-May-08 13:30N 33°44' E 130°05'815.9
2018-May-08 13:00N 33°43' E 130°15'714.0
2018-May-08 12:30N 33°38' E 130°21'3 6.5
2018-May-08 11:59N 33°39' E 130°25'0 0.0
2018-May-08 11:29N 33°39' E 130°25'0 0.0
2018-May-08 10:59N 33°39' E 130°25'0 0.0
2018-May-08 10:29N 33°39' E 130°25'0 0.0
2018-May-08 09:53N 33°39' E 130°25'0 0.0
2018-May-08 09:29N 33°39' E 130°25'0 0.0
2018-May-08 08:59N 33°39' E 130°25'0 0.0
2018-May-08 08:29N 33°39' E 130°25'0 0.0
2018-May-08 07:59N 33°39' E 130°25'0 0.0
2018-May-08 07:29N 33°39' E 130°25'0 0.0
2018-May-08 06:59N 33°39' E 130°25'0 0.0
2018-May-08 06:29N 33°39' E 130°25'0 0.0
2018-May-08 05:59N 33°39' E 130°25'0 0.0
2018-May-08 05:29N 33°39' E 130°25'0 0.0
2018-May-08 05:00N 33°39' E 130°25'4 8.0
2018-May-08 04:30N 33°38' E 130°20'714.8
2018-May-08 04:00N 33°43' E 130°14'816.1
2018-May-08 03:30N 33°42' E 130°04'917.2
2018-May-08 03:00N 33°39' E 129°55'  

Dump ship's entire track history